Leo Star I — ELXC6 — position and weather

sailwx.info

Track history (hours):
 
Tides and Currents Weather Stations Pressure Air Temp Water Temp Dewpoint Dewpoint Depression Visibility Wind Speed Wind Dir Waves Ship Positions

Leo Star I

Last reported at 2014-Nov-20 07:26 UTC. Time now 2014-Dec-18 00:48 UTC.
Position N 46°32' W 072°10'.
Warning: this ship's position is 27 days out of date.

Length 157 m; draft 9.3 m.

Type: Cargo ship. MMSI: 636015065.

Date/timePositionNaut miles runAvg speedWind from/ knotsBaromVisibWave heightAir tempDewpointWater temp
2014-Nov-20 07:26N 46°32' W 072°10'1112.3
2014-Nov-20 06:33N 46°25' W 072°22'1111.5
2014-Nov-20 05:33N 46°18' W 072°35'59 2.0
2014-Nov-18 23:11N 45°33' W 073°31'0 0.0
2014-Nov-18 21:32N 45°33' W 073°31'0 0.0
2014-Nov-18 20:11N 45°33' W 073°31'0 0.0
2014-Nov-18 19:26N 45°33' W 073°31'0 0.0
2014-Nov-18 18:32N 45°33' W 073°31'0 0.0
2014-Nov-18 17:23N 45°33' W 073°31'0 0.0
2014-Nov-18 16:29N 45°33' W 073°31'0 0.0
2014-Nov-18 15:14N 45°33' W 073°31'0 0.0
2014-Nov-18 14:32N 45°33' W 073°31'0 0.0
2014-Nov-18 13:32N 45°33' W 073°31'0 0.0
2014-Nov-18 12:32N 45°33' W 073°31'0 0.0
2014-Nov-18 11:32N 45°33' W 073°31'0 0.0
2014-Nov-18 10:32N 45°33' W 073°31'0 0.0
2014-Nov-18 09:29N 45°33' W 073°31'0 0.0
2014-Nov-18 08:32N 45°33' W 073°31'0 0.0
2014-Nov-18 07:32N 45°33' W 073°31'0 0.0
2014-Nov-18 06:26N 45°33' W 073°31'0 0.0
2014-Nov-18 05:31N 45°33' W 073°31'0 0.0
2014-Nov-18 04:31N 45°33' W 073°31'0 0.0
2014-Nov-18 03:31N 45°33' W 073°31'0 0.0
2014-Nov-18 02:31N 45°33' W 073°31'0 0.0
2014-Nov-18 01:28N 45°33' W 073°31'0 0.0
2014-Nov-18 00:25N 45°33' W 073°31'0 0.0
2014-Nov-17 23:31N 45°33' W 073°31'0 0.0
2014-Nov-17 22:28N 45°33' W 073°31'0 0.0
2014-Nov-17 21:31N 45°33' W 073°31'0 0.0
2014-Nov-17 20:31N 45°33' W 073°31'0 0.0
2014-Nov-17 19:31N 45°33' W 073°31'0 0.0
2014-Nov-17 18:31N 45°33' W 073°31'0 0.0
2014-Nov-17 17:31N 45°33' W 073°31'0 0.0
2014-Nov-17 16:19N 45°33' W 073°31'0 0.0
2014-Nov-17 14:25N 45°33' W 073°31'0 0.0
2014-Nov-17 13:25N 45°33' W 073°31'0 0.0
2014-Nov-17 12:13N 45°33' W 073°31'0 0.0
2014-Nov-17 11:31N 45°33' W 073°31'0 0.0
2014-Nov-17 10:31N 45°33' W 073°31'0 0.0
2014-Nov-17 09:31N 45°33' W 073°31'0 0.0
2014-Nov-17 08:31N 45°33' W 073°31'0 0.0
2014-Nov-17 07:31N 45°33' W 073°31'0 0.0
2014-Nov-17 06:31N 45°33' W 073°31'0 0.0
2014-Nov-17 05:31N 45°33' W 073°31'0 0.1
2014-Nov-17 04:33N 45°33' W 073°31'6 6.4
2014-Nov-17 03:33N 45°39' W 073°28'9 9.5
2014-Nov-17 02:33N 45°47' W 073°21'10 9.6
2014-Nov-17 01:33N 45°55' W 073°13'9 8.5
2014-Nov-17 00:33N 46°03' W 073°08'1 1.2
2014-Nov-16 23:33N 46°04' W 073°06'0 0.0
2014-Nov-16 22:33N 46°04' W 073°06'0 0.0
2014-Nov-16 21:33N 46°04' W 073°06'0 0.0
2014-Nov-16 20:33N 46°04' W 073°06'0 0.0
2014-Nov-16 19:30N 46°04' W 073°06'0 0.0
2014-Nov-16 18:30N 46°04' W 073°06'0 0.0
2014-Nov-16 17:30N 46°04' W 073°06'0 0.0
2014-Nov-16 16:33N 46°04' W 073°06'0 0.0
2014-Nov-16 15:33N 46°04' W 073°06'0 0.0
2014-Nov-16 14:30N 46°04' W 073°06'0 0.0
2014-Nov-16 13:33N 46°04' W 073°06'0 0.0
2014-Nov-16 12:33N 46°04' W 073°06'0 0.0
2014-Nov-16 11:33N 46°04' W 073°06'0 0.0
2014-Nov-16 10:30N 46°04' W 073°06'0 0.0
2014-Nov-16 09:24N 46°04' W 073°06'0 0.0
2014-Nov-16 08:30N 46°04' W 073°06'0 0.0
2014-Nov-16 07:27N 46°04' W 073°06'0 0.0
2014-Nov-16 06:30N 46°04' W 073°06'0 0.0
2014-Nov-16 05:33N 46°04' W 073°06'0 0.0
2014-Nov-16 04:33N 46°04' W 073°06'0 0.0
2014-Nov-16 03:29N 46°04' W 073°06'0 0.0
2014-Nov-16 02:29N 46°04' W 073°06'0 0.0
2014-Nov-16 01:32N 46°04' W 073°06'0 0.0
2014-Nov-16 00:26N 46°04' W 073°06'0 0.0
2014-Nov-15 23:29N 46°04' W 073°06'0 0.0
2014-Nov-15 21:23N 46°04' W 073°06'0 0.0
2014-Nov-15 19:11N 46°04' W 073°06'0 0.0
2014-Nov-15 16:08N 46°04' W 073°06'0 0.0
2014-Nov-15 15:20N 46°04' W 073°06'0 0.0
2014-Nov-15 13:32N 46°04' W 073°06'0 0.0
2014-Nov-15 12:29N 46°04' W 073°06'0 0.0
2014-Nov-15 11:29N 46°04' W 073°06'0 0.0
2014-Nov-15 10:32N 46°04' W 073°06'0 0.0
2014-Nov-15 09:32N 46°04' W 073°06'0 0.0
2014-Nov-15 08:32N 46°04' W 073°06'0 0.0
2014-Nov-15 07:23N 46°04' W 073°06'0 0.0
2014-Nov-15 06:17N 46°04' W 073°06'0 0.0
2014-Nov-15 04:32N 46°04' W 073°06'0 0.0
2014-Nov-15 02:29N 46°04' W 073°06'0 0.0
2014-Nov-14 12:31N 46°04' W 073°06'0 0.0
2014-Nov-14 11:31N 46°04' W 073°06'0 0.0
2014-Nov-14 10:31N 46°04' W 073°06'0 0.0
2014-Nov-14 09:31N 46°04' W 073°06'0 0.0
2014-Nov-14 08:22N 46°04' W 073°06'0 0.0
2014-Nov-14 07:28N 46°04' W 073°06'0 0.0
2014-Nov-14 06:31N 46°04' W 073°06'0 0.0
2014-Nov-14 05:04N 46°04' W 073°06'0 0.0
2014-Nov-14 04:28N 46°04' W 073°06'0 0.0
2014-Nov-14 03:19N 46°04' W 073°06'0 0.0
2014-Nov-14 02:22N 46°04' W 073°06'0 0.0
2014-Nov-14 01:22N 46°04' W 073°06'0 0.0
2014-Nov-14 00:16N 46°04' W 073°06'0 0.0
2014-Nov-13 23:04N 46°04' W 073°06'0 0.0
2014-Nov-13 22:16N 46°04' W 073°06'0 0.0
2014-Nov-13 21:19N 46°04' W 073°06'0 0.0
2014-Nov-13 20:28N 46°04' W 073°06'0 0.0
2014-Nov-13 19:28N 46°04' W 073°06'0 0.0
2014-Nov-13 17:28N 46°04' W 073°06'0 0.0
2014-Nov-13 16:16N 46°04' W 073°06'0 0.0
2014-Nov-13 14:10N 46°04' W 073°06'0 0.0
2014-Nov-13 13:31N 46°04' W 073°06'0 0.0
2014-Nov-13 12:31N 46°04' W 073°06'0 0.0
2014-Nov-13 11:31N 46°04' W 073°06'0 0.0
2014-Nov-13 10:28N 46°04' W 073°06'0 0.0
2014-Nov-13 09:28N 46°04' W 073°06'0 0.0
2014-Nov-13 08:28N 46°04' W 073°06'0 0.0
2014-Nov-13 07:13N 46°04' W 073°06'0 0.0
2014-Nov-13 06:31N 46°04' W 073°06'0 0.0
2014-Nov-13 05:22N 46°04' W 073°06'0 0.0
2014-Nov-13 04:31N 46°04' W 073°06'0 0.0
2014-Nov-13 03:22N 46°04' W 073°06'0 0.0
2014-Nov-13 02:04N 46°04' W 073°06'0 0.0
2014-Nov-13 01:16N 46°04' W 073°06'0 0.0
2014-Nov-13 00:16N 46°04' W 073°06'0 0.0
2014-Nov-12 23:33N 46°04' W 073°06'0 0.0
2014-Nov-12 22:18N 46°04' W 073°06'0 0.0
2014-Nov-12 21:15N 46°04' W 073°06'0 0.0
2014-Nov-12 20:33N 46°04' W 073°06'0 0.0
2014-Nov-12 19:30N 46°04' W 073°06'0 0.0
2014-Nov-12 18:33N 46°04' W 073°06'0 0.0
2014-Nov-12 17:33N 46°04' W 073°06'0 0.0
2014-Nov-12 11:06N 46°03' W 073°07'0 0.0
2014-Nov-12 10:33N 46°03' W 073°07'0 0.1
2014-Nov-12 09:33N 46°03' W 073°07'0 0.0
2014-Nov-12 06:33N 46°03' W 073°07'0 0.0
2014-Nov-12 05:21N 46°03' W 073°07'0 0.0
2014-Nov-10 18:26N 46°04' W 073°06'  
Track history (hours):
 
Tides and Currents Weather Stations Pressure Air Temp Water Temp Dewpoint Dewpoint Depression Visibility Wind Speed Wind Dir Waves Ship Positions

Leo Star I

Last reported at 2014-Nov-20 07:26 UTC. Time now 2014-Dec-18 00:48 UTC.
Position N 46°32' W 072°10'.
Warning: this ship's position is 27 days out of date.

Length 157 m; draft 9.3 m.

Type: Cargo ship. MMSI: 636015065.

Date/timePositionNaut miles runAvg speedWind from/ knotsBaromVisibWave heightAir tempDewpointWater temp
2014-Nov-20 07:26N 46°32' W 072°10'1112.3
2014-Nov-20 06:33N 46°25' W 072°22'1111.5
2014-Nov-20 05:33N 46°18' W 072°35'59 2.0
2014-Nov-18 23:11N 45°33' W 073°31'0 0.0
2014-Nov-18 21:32N 45°33' W 073°31'0 0.0
2014-Nov-18 20:11N 45°33' W 073°31'0 0.0
2014-Nov-18 19:26N 45°33' W 073°31'0 0.0
2014-Nov-18 18:32N 45°33' W 073°31'0 0.0
2014-Nov-18 17:23N 45°33' W 073°31'0 0.0
2014-Nov-18 16:29N 45°33' W 073°31'0 0.0
2014-Nov-18 15:14N 45°33' W 073°31'0 0.0
2014-Nov-18 14:32N 45°33' W 073°31'0 0.0
2014-Nov-18 13:32N 45°33' W 073°31'0 0.0
2014-Nov-18 12:32N 45°33' W 073°31'0 0.0
2014-Nov-18 11:32N 45°33' W 073°31'0 0.0
2014-Nov-18 10:32N 45°33' W 073°31'0 0.0
2014-Nov-18 09:29N 45°33' W 073°31'0 0.0
2014-Nov-18 08:32N 45°33' W 073°31'0 0.0
2014-Nov-18 07:32N 45°33' W 073°31'0 0.0
2014-Nov-18 06:26N 45°33' W 073°31'0 0.0
2014-Nov-18 05:31N 45°33' W 073°31'0 0.0
2014-Nov-18 04:31N 45°33' W 073°31'0 0.0
2014-Nov-18 03:31N 45°33' W 073°31'0 0.0
2014-Nov-18 02:31N 45°33' W 073°31'0 0.0
2014-Nov-18 01:28N 45°33' W 073°31'0 0.0
2014-Nov-18 00:25N 45°33' W 073°31'0 0.0
2014-Nov-17 23:31N 45°33' W 073°31'0 0.0
2014-Nov-17 22:28N 45°33' W 073°31'0 0.0
2014-Nov-17 21:31N 45°33' W 073°31'0 0.0
2014-Nov-17 20:31N 45°33' W 073°31'0 0.0
2014-Nov-17 19:31N 45°33' W 073°31'0 0.0
2014-Nov-17 18:31N 45°33' W 073°31'0 0.0
2014-Nov-17 17:31N 45°33' W 073°31'0 0.0
2014-Nov-17 16:19N 45°33' W 073°31'0 0.0
2014-Nov-17 14:25N 45°33' W 073°31'0 0.0
2014-Nov-17 13:25N 45°33' W 073°31'0 0.0
2014-Nov-17 12:13N 45°33' W 073°31'0 0.0
2014-Nov-17 11:31N 45°33' W 073°31'0 0.0
2014-Nov-17 10:31N 45°33' W 073°31'0 0.0
2014-Nov-17 09:31N 45°33' W 073°31'0 0.0
2014-Nov-17 08:31N 45°33' W 073°31'0 0.0
2014-Nov-17 07:31N 45°33' W 073°31'0 0.0
2014-Nov-17 06:31N 45°33' W 073°31'0 0.0
2014-Nov-17 05:31N 45°33' W 073°31'0 0.1
2014-Nov-17 04:33N 45°33' W 073°31'6 6.4
2014-Nov-17 03:33N 45°39' W 073°28'9 9.5
2014-Nov-17 02:33N 45°47' W 073°21'10 9.6
2014-Nov-17 01:33N 45°55' W 073°13'9 8.5
2014-Nov-17 00:33N 46°03' W 073°08'1 1.2
2014-Nov-16 23:33N 46°04' W 073°06'0 0.0
2014-Nov-16 22:33N 46°04' W 073°06'0 0.0
2014-Nov-16 21:33N 46°04' W 073°06'0 0.0
2014-Nov-16 20:33N 46°04' W 073°06'0 0.0
2014-Nov-16 19:30N 46°04' W 073°06'0 0.0
2014-Nov-16 18:30N 46°04' W 073°06'0 0.0
2014-Nov-16 17:30N 46°04' W 073°06'0 0.0
2014-Nov-16 16:33N 46°04' W 073°06'0 0.0
2014-Nov-16 15:33N 46°04' W 073°06'0 0.0
2014-Nov-16 14:30N 46°04' W 073°06'0 0.0
2014-Nov-16 13:33N 46°04' W 073°06'0 0.0
2014-Nov-16 12:33N 46°04' W 073°06'0 0.0
2014-Nov-16 11:33N 46°04' W 073°06'0 0.0
2014-Nov-16 10:30N 46°04' W 073°06'0 0.0
2014-Nov-16 09:24N 46°04' W 073°06'0 0.0
2014-Nov-16 08:30N 46°04' W 073°06'0 0.0
2014-Nov-16 07:27N 46°04' W 073°06'0 0.0
2014-Nov-16 06:30N 46°04' W 073°06'0 0.0
2014-Nov-16 05:33N 46°04' W 073°06'0 0.0
2014-Nov-16 04:33N 46°04' W 073°06'0 0.0
2014-Nov-16 03:29N 46°04' W 073°06'0 0.0
2014-Nov-16 02:29N 46°04' W 073°06'0 0.0
2014-Nov-16 01:32N 46°04' W 073°06'0 0.0
2014-Nov-16 00:26N 46°04' W 073°06'0 0.0
2014-Nov-15 23:29N 46°04' W 073°06'0 0.0
2014-Nov-15 21:23N 46°04' W 073°06'0 0.0
2014-Nov-15 19:11N 46°04' W 073°06'0 0.0
2014-Nov-15 16:08N 46°04' W 073°06'0 0.0
2014-Nov-15 15:20N 46°04' W 073°06'0 0.0
2014-Nov-15 13:32N 46°04' W 073°06'0 0.0
2014-Nov-15 12:29N 46°04' W 073°06'0 0.0
2014-Nov-15 11:29N 46°04' W 073°06'0 0.0
2014-Nov-15 10:32N 46°04' W 073°06'0 0.0
2014-Nov-15 09:32N 46°04' W 073°06'0 0.0
2014-Nov-15 08:32N 46°04' W 073°06'0 0.0
2014-Nov-15 07:23N 46°04' W 073°06'0 0.0
2014-Nov-15 06:17N 46°04' W 073°06'0 0.0
2014-Nov-15 04:32N 46°04' W 073°06'0 0.0
2014-Nov-15 02:29N 46°04' W 073°06'0 0.0
2014-Nov-14 12:31N 46°04' W 073°06'0 0.0
2014-Nov-14 11:31N 46°04' W 073°06'0 0.0
2014-Nov-14 10:31N 46°04' W 073°06'0 0.0
2014-Nov-14 09:31N 46°04' W 073°06'0 0.0
2014-Nov-14 08:22N 46°04' W 073°06'0 0.0
2014-Nov-14 07:28N 46°04' W 073°06'0 0.0
2014-Nov-14 06:31N 46°04' W 073°06'0 0.0
2014-Nov-14 05:04N 46°04' W 073°06'0 0.0
2014-Nov-14 04:28N 46°04' W 073°06'0 0.0
2014-Nov-14 03:19N 46°04' W 073°06'0 0.0
2014-Nov-14 02:22N 46°04' W 073°06'0 0.0
2014-Nov-14 01:22N 46°04' W 073°06'0 0.0
2014-Nov-14 00:16N 46°04' W 073°06'0 0.0
2014-Nov-13 23:04N 46°04' W 073°06'0 0.0
2014-Nov-13 22:16N 46°04' W 073°06'0 0.0
2014-Nov-13 21:19N 46°04' W 073°06'0 0.0
2014-Nov-13 20:28N 46°04' W 073°06'0 0.0
2014-Nov-13 19:28N 46°04' W 073°06'0 0.0
2014-Nov-13 17:28N 46°04' W 073°06'0 0.0
2014-Nov-13 16:16N 46°04' W 073°06'0 0.0
2014-Nov-13 14:10N 46°04' W 073°06'0 0.0
2014-Nov-13 13:31N 46°04' W 073°06'0 0.0
2014-Nov-13 12:31N 46°04' W 073°06'0 0.0
2014-Nov-13 11:31N 46°04' W 073°06'0 0.0
2014-Nov-13 10:28N 46°04' W 073°06'0 0.0
2014-Nov-13 09:28N 46°04' W 073°06'0 0.0
2014-Nov-13 08:28N 46°04' W 073°06'0 0.0
2014-Nov-13 07:13N 46°04' W 073°06'0 0.0
2014-Nov-13 06:31N 46°04' W 073°06'0 0.0
2014-Nov-13 05:22N 46°04' W 073°06'0 0.0
2014-Nov-13 04:31N 46°04' W 073°06'0 0.0
2014-Nov-13 03:22N 46°04' W 073°06'0 0.0
2014-Nov-13 02:04N 46°04' W 073°06'0 0.0
2014-Nov-13 01:16N 46°04' W 073°06'0 0.0
2014-Nov-13 00:16N 46°04' W 073°06'0 0.0
2014-Nov-12 23:33N 46°04' W 073°06'0 0.0
2014-Nov-12 22:18N 46°04' W 073°06'0 0.0
2014-Nov-12 21:15N 46°04' W 073°06'0 0.0
2014-Nov-12 20:33N 46°04' W 073°06'0 0.0
2014-Nov-12 19:30N 46°04' W 073°06'0 0.0
2014-Nov-12 18:33N 46°04' W 073°06'0 0.0
2014-Nov-12 17:33N 46°04' W 073°06'0 0.0
2014-Nov-12 11:06N 46°03' W 073°07'0 0.0
2014-Nov-12 10:33N 46°03' W 073°07'0 0.1
2014-Nov-12 09:33N 46°03' W 073°07'0 0.0
2014-Nov-12 06:33N 46°03' W 073°07'0 0.0
2014-Nov-12 05:21N 46°03' W 073°07'0 0.0
2014-Nov-10 18:26N 46°04' W 073°06'  

Dump ship's entire track history